sensor_id;sensor_type;location;lat;lon;timestamp;P1;durP1;ratioP1;P2;durP2;ratioP2
54511;SDS011;40419;47.438;19.026;2024-01-15T00:00:09;24.88;;;14.48;;
54511;SDS011;40419;47.438;19.026;2024-01-15T00:02:38;29.35;;;12.77;;
54511;SDS011;40419;47.438;19.026;2024-01-15T00:05:03;27.33;;;12.27;;
54511;SDS011;40419;47.438;19.026;2024-01-15T00:07:35;22.48;;;12.55;;
54511;SDS011;40419;47.438;19.026;2024-01-15T00:10:00;33.65;;;13.50;;
54511;SDS011;40419;47.438;19.026;2024-01-15T00:12:29;25.90;;;10.75;;
54511;SDS011;40419;47.438;19.026;2024-01-15T00:14:56;26.55;;;12.38;;
54511;SDS011;40419;47.438;19.026;2024-01-15T00:17:27;32.97;;;13.77;;
54511;SDS011;40419;47.438;19.026;2024-01-15T00:19:52;33.08;;;15.38;;
54511;SDS011;40419;47.438;19.026;2024-01-15T00:22:21;25.70;;;13.35;;
54511;SDS011;40419;47.438;19.026;2024-01-15T00:24:49;25.63;;;12.50;;
54511;SDS011;40419;47.438;19.026;2024-01-15T00:27:17;21.33;;;12.50;;
54511;SDS011;40419;47.438;19.026;2024-01-15T00:29:47;25.25;;;12.00;;
54511;SDS011;40419;47.438;19.026;2024-01-15T00:32:13;27.02;;;12.98;;
54511;SDS011;40419;47.438;19.026;2024-01-15T00:34:43;25.08;;;11.23;;
54511;SDS011;40419;47.438;19.026;2024-01-15T00:37:12;21.02;;;13.73;;
54511;SDS011;40419;47.438;19.026;2024-01-15T00:39:41;18.80;;;12.57;;
54511;SDS011;40419;47.438;19.026;2024-01-15T00:42:07;29.75;;;13.20;;
54511;SDS011;40419;47.438;19.026;2024-01-15T00:44:35;30.08;;;12.68;;
54511;SDS011;40419;47.438;19.026;2024-01-15T00:47:01;21.30;;;12.98;;
54511;SDS011;40419;47.438;19.026;2024-01-15T00:49:27;23.63;;;11.88;;
54511;SDS011;40419;47.438;19.026;2024-01-15T00:51:52;31.25;;;12.77;;
54511;SDS011;40419;47.438;19.026;2024-01-15T00:54:20;23.13;;;12.98;;
54511;SDS011;40419;47.438;19.026;2024-01-15T00:56:51;26.25;;;12.85;;
54511;SDS011;40419;47.438;19.026;2024-01-15T00:59:21;27.00;;;12.23;;
54511;SDS011;40419;47.438;19.026;2024-01-15T01:01:49;27.48;;;14.27;;
54511;SDS011;40419;47.438;19.026;2024-01-15T01:04:19;22.67;;;12.65;;
54511;SDS011;40419;47.438;19.026;2024-01-15T01:06:45;25.67;;;12.63;;
54511;SDS011;40419;47.438;19.026;2024-01-15T01:09:15;24.60;;;11.68;;
54511;SDS011;40419;47.438;19.026;2024-01-15T01:11:41;24.48;;;13.50;;
54511;SDS011;40419;47.438;19.026;2024-01-15T01:14:13;23.67;;;13.68;;
54511;SDS011;40419;47.438;19.026;2024-01-15T01:16:39;20.83;;;10.95;;
54511;SDS011;40419;47.438;19.026;2024-01-15T01:19:05;18.20;;;10.60;;
54511;SDS011;40419;47.438;19.026;2024-01-15T01:21:33;19.52;;;11.05;;
54511;SDS011;40419;47.438;19.026;2024-01-15T01:24:02;24.65;;;12.38;;
54511;SDS011;40419;47.438;19.026;2024-01-15T01:26:30;26.73;;;12.27;;
54511;SDS011;40419;47.438;19.026;2024-01-15T01:28:58;23.65;;;12.00;;
54511;SDS011;40419;47.438;19.026;2024-01-15T01:31:26;20.40;;;9.88;;
54511;SDS011;40419;47.438;19.026;2024-01-15T01:33:52;19.70;;;11.18;;
54511;SDS011;40419;47.438;19.026;2024-01-15T01:36:23;20.60;;;10.80;;
54511;SDS011;40419;47.438;19.026;2024-01-15T01:38:48;24.85;;;12.65;;
54511;SDS011;40419;47.438;19.026;2024-01-15T01:41:14;29.27;;;12.07;;
54511;SDS011;40419;47.438;19.026;2024-01-15T01:43:44;20.65;;;10.18;;
54511;SDS011;40419;47.438;19.026;2024-01-15T01:46:12;23.55;;;11.85;;
54511;SDS011;40419;47.438;19.026;2024-01-15T01:48:40;25.88;;;11.38;;
54511;SDS011;40419;47.438;19.026;2024-01-15T01:51:08;22.98;;;10.65;;
54511;SDS011;40419;47.438;19.026;2024-01-15T01:53:34;25.73;;;12.02;;
54511;SDS011;40419;47.438;19.026;2024-01-15T01:56:00;32.90;;;10.45;;
54511;SDS011;40419;47.438;19.026;2024-01-15T01:58:28;20.08;;;9.88;;
54511;SDS011;40419;47.438;19.026;2024-01-15T02:00:57;27.88;;;10.00;;
54511;SDS011;40419;47.438;19.026;2024-01-15T02:03:28;19.90;;;10.30;;
54511;SDS011;40419;47.438;19.026;2024-01-15T02:05:58;21.65;;;9.68;;
54511;SDS011;40419;47.438;19.026;2024-01-15T02:08:25;22.30;;;12.15;;
54511;SDS011;40419;47.438;19.026;2024-01-15T02:10:54;17.08;;;11.18;;
54511;SDS011;40419;47.438;19.026;2024-01-15T02:13:24;24.65;;;11.45;;
54511;SDS011;40419;47.438;19.026;2024-01-15T02:15:49;20.45;;;11.27;;
54511;SDS011;40419;47.438;19.026;2024-01-15T02:18:15;38.35;;;11.27;;
54511;SDS011;40419;47.438;19.026;2024-01-15T02:20:40;23.13;;;11.38;;
54511;SDS011;40419;47.438;19.026;2024-01-15T02:23:09;22.02;;;12.88;;
54511;SDS011;40419;47.438;19.026;2024-01-15T02:25:39;28.85;;;11.02;;
54511;SDS011;40419;47.438;19.026;2024-01-15T02:28:09;13.75;;;9.02;;
54511;SDS011;40419;47.438;19.026;2024-01-15T02:30:39;26.75;;;12.40;;
54511;SDS011;40419;47.438;19.026;2024-01-15T02:33:09;15.70;;;8.95;;
54511;SDS011;40419;47.438;19.026;2024-01-15T02:35:35;17.02;;;8.88;;
54511;SDS011;40419;47.438;19.026;2024-01-15T02:38:04;20.13;;;11.88;;
54511;SDS011;40419;47.438;19.026;2024-01-15T02:40:33;25.85;;;9.60;;
54511;SDS011;40419;47.438;19.026;2024-01-15T02:43:03;24.63;;;11.07;;
54511;SDS011;40419;47.438;19.026;2024-01-15T02:45:29;13.65;;;9.07;;
54511;SDS011;40419;47.438;19.026;2024-01-15T02:47:59;18.23;;;8.32;;
54511;SDS011;40419;47.438;19.026;2024-01-15T02:50:24;13.73;;;8.68;;
54511;SDS011;40419;47.438;19.026;2024-01-15T02:52:52;22.08;;;9.35;;
54511;SDS011;40419;47.438;19.026;2024-01-15T02:55:20;17.17;;;9.05;;
54511;SDS011;40419;47.438;19.026;2024-01-15T02:57:48;21.95;;;11.70;;
54511;SDS011;40419;47.438;19.026;2024-01-15T03:00:16;16.75;;;8.18;;
54511;SDS011;40419;47.438;19.026;2024-01-15T03:02:45;18.27;;;10.18;;
54511;SDS011;40419;47.438;19.026;2024-01-15T03:05:13;12.48;;;8.43;;
54511;SDS011;40419;47.438;19.026;2024-01-15T03:07:44;20.52;;;12.10;;
54511;SDS011;40419;47.438;19.026;2024-01-15T03:10:12;13.35;;;8.80;;
54511;SDS011;40419;47.438;19.026;2024-01-15T03:12:40;26.58;;;11.07;;
54511;SDS011;40419;47.438;19.026;2024-01-15T03:15:08;16.38;;;9.80;;
54511;SDS011;40419;47.438;19.026;2024-01-15T03:17:33;15.70;;;8.55;;
54511;SDS011;40419;47.438;19.026;2024-01-15T03:20:02;15.45;;;11.68;;
54511;SDS011;40419;47.438;19.026;2024-01-15T03:22:30;16.55;;;11.50;;
54511;SDS011;40419;47.438;19.026;2024-01-15T03:25:00;16.45;;;9.45;;
54511;SDS011;40419;47.438;19.026;2024-01-15T03:27:31;21.05;;;10.23;;
54511;SDS011;40419;47.438;19.026;2024-01-15T03:29:59;20.80;;;11.70;;
54511;SDS011;40419;47.438;19.026;2024-01-15T03:32:30;22.17;;;8.35;;
54511;SDS011;40419;47.438;19.026;2024-01-15T03:34:55;25.90;;;11.73;;
54511;SDS011;40419;47.438;19.026;2024-01-15T03:37:21;13.98;;;8.65;;
54511;SDS011;40419;47.438;19.026;2024-01-15T03:39:46;21.65;;;10.45;;
54511;SDS011;40419;47.438;19.026;2024-01-15T03:42:19;16.05;;;9.93;;
54511;SDS011;40419;47.438;19.026;2024-01-15T03:44:46;22.80;;;11.65;;
54511;SDS011;40419;47.438;19.026;2024-01-15T03:47:14;14.63;;;7.90;;
54511;SDS011;40419;47.438;19.026;2024-01-15T03:49:42;23.23;;;10.18;;
54511;SDS011;40419;47.438;19.026;2024-01-15T03:52:12;25.15;;;9.82;;
54511;SDS011;40419;47.438;19.026;2024-01-15T03:54:40;27.00;;;13.32;;
54511;SDS011;40419;47.438;19.026;2024-01-15T03:57:05;19.52;;;9.57;;
54511;SDS011;40419;47.438;19.026;2024-01-15T03:59:31;19.85;;;9.77;;
54511;SDS011;40419;47.438;19.026;2024-01-15T04:01:59;24.50;;;8.88;;
54511;SDS011;40419;47.438;19.026;2024-01-15T04:04:26;19.35;;;9.35;;
54511;SDS011;40419;47.438;19.026;2024-01-15T04:06:52;16.48;;;10.38;;
54511;SDS011;40419;47.438;19.026;2024-01-15T04:09:19;22.17;;;10.85;;
54511;SDS011;40419;47.438;19.026;2024-01-15T04:11:45;29.15;;;10.38;;
54511;SDS011;40419;47.438;19.026;2024-01-15T04:14:13;17.40;;;10.50;;
54511;SDS011;40419;47.438;19.026;2024-01-15T04:16:41;24.88;;;9.40;;
54511;SDS011;40419;47.438;19.026;2024-01-15T04:19:11;18.95;;;11.65;;
54511;SDS011;40419;47.438;19.026;2024-01-15T04:21:36;22.58;;;11.02;;
54511;SDS011;40419;47.438;19.026;2024-01-15T04:24:04;23.30;;;11.48;;
54511;SDS011;40419;47.438;19.026;2024-01-15T04:26:30;10.73;;;8.50;;
54511;SDS011;40419;47.438;19.026;2024-01-15T04:29:00;17.30;;;10.55;;
54511;SDS011;40419;47.438;19.026;2024-01-15T04:31:30;19.35;;;11.93;;
54511;SDS011;40419;47.438;19.026;2024-01-15T04:33:56;21.25;;;9.20;;
54511;SDS011;40419;47.438;19.026;2024-01-15T04:36:21;16.33;;;9.40;;
54511;SDS011;40419;47.438;19.026;2024-01-15T04:38:47;23.95;;;8.98;;
54511;SDS011;40419;47.438;19.026;2024-01-15T04:41:17;26.55;;;10.50;;
54511;SDS011;40419;47.438;19.026;2024-01-15T04:43:47;19.23;;;11.27;;
54511;SDS011;40419;47.438;19.026;2024-01-15T04:46:20;16.45;;;9.77;;
54511;SDS011;40419;47.438;19.026;2024-01-15T04:48:48;19.45;;;10.57;;
54511;SDS011;40419;47.438;19.026;2024-01-15T04:51:13;14.57;;;8.88;;
54511;SDS011;40419;47.438;19.026;2024-01-15T04:53:39;37.25;;;11.52;;
54511;SDS011;40419;47.438;19.026;2024-01-15T04:56:11;19.83;;;9.80;;
54511;SDS011;40419;47.438;19.026;2024-01-15T04:58:44;9.77;;;6.95;;
54511;SDS011;40419;47.438;19.026;2024-01-15T05:01:15;16.17;;;9.95;;
54511;SDS011;40419;47.438;19.026;2024-01-15T05:03:41;16.75;;;10.48;;
54511;SDS011;40419;47.438;19.026;2024-01-15T05:06:07;21.33;;;11.75;;
54511;SDS011;40419;47.438;19.026;2024-01-15T05:08:34;19.98;;;10.80;;
54511;SDS011;40419;47.438;19.026;2024-01-15T05:11:00;19.85;;;11.27;;
54511;SDS011;40419;47.438;19.026;2024-01-15T05:13:28;11.52;;;8.23;;
54511;SDS011;40419;47.438;19.026;2024-01-15T05:15:53;17.20;;;10.73;;
54511;SDS011;40419;47.438;19.026;2024-01-15T05:18:19;17.23;;;11.48;;
54511;SDS011;40419;47.438;19.026;2024-01-15T05:20:47;29.58;;;11.48;;
54511;SDS011;40419;47.438;19.026;2024-01-15T05:23:14;19.85;;;11.07;;
54511;SDS011;40419;47.438;19.026;2024-01-15T05:25:45;22.17;;;11.85;;
54511;SDS011;40419;47.438;19.026;2024-01-15T05:30:40;15.10;;;8.82;;
54511;SDS011;40419;47.438;19.026;2024-01-15T05:33:13;19.30;;;12.60;;
54511;SDS011;40419;47.438;19.026;2024-01-15T05:35:41;23.25;;;9.43;;
54511;SDS011;40419;47.438;19.026;2024-01-15T05:38:08;25.65;;;12.23;;
54511;SDS011;40419;47.438;19.026;2024-01-15T05:40:38;25.20;;;9.07;;
54511;SDS011;40419;47.438;19.026;2024-01-15T05:43:08;15.80;;;10.63;;
54511;SDS011;40419;47.438;19.026;2024-01-15T05:45:39;15.18;;;8.65;;
54511;SDS011;40419;47.438;19.026;2024-01-15T05:48:11;24.80;;;11.60;;
54511;SDS011;40419;47.438;19.026;2024-01-15T05:50:37;18.45;;;9.45;;
54511;SDS011;40419;47.438;19.026;2024-01-15T05:53:03;24.70;;;12.13;;
54511;SDS011;40419;47.438;19.026;2024-01-15T05:55:31;23.95;;;10.35;;
54511;SDS011;40419;47.438;19.026;2024-01-15T05:58:02;21.75;;;13.38;;
54511;SDS011;40419;47.438;19.026;2024-01-15T06:00:28;27.20;;;13.77;;
54511;SDS011;40419;47.438;19.026;2024-01-15T06:02:57;26.63;;;13.07;;
54511;SDS011;40419;47.438;19.026;2024-01-15T06:05:28;27.75;;;13.43;;
54511;SDS011;40419;47.438;19.026;2024-01-15T06:07:56;35.20;;;12.95;;
54511;SDS011;40419;47.438;19.026;2024-01-15T06:10:24;18.35;;;11.80;;
54511;SDS011;40419;47.438;19.026;2024-01-15T06:12:50;15.70;;;9.63;;
54511;SDS011;40419;47.438;19.026;2024-01-15T06:15:18;18.45;;;9.50;;
54511;SDS011;40419;47.438;19.026;2024-01-15T06:17:45;21.02;;;11.05;;
54511;SDS011;40419;47.438;19.026;2024-01-15T06:20:11;21.50;;;9.57;;
54511;SDS011;40419;47.438;19.026;2024-01-15T06:22:42;15.65;;;11.82;;
54511;SDS011;40419;47.438;19.026;2024-01-15T06:25:07;14.50;;;10.40;;
54511;SDS011;40419;47.438;19.026;2024-01-15T06:27:35;25.45;;;11.63;;
54511;SDS011;40419;47.438;19.026;2024-01-15T06:30:01;13.82;;;8.82;;
54511;SDS011;40419;47.438;19.026;2024-01-15T06:32:31;20.63;;;11.15;;
54511;SDS011;40419;47.438;19.026;2024-01-15T06:34:58;32.10;;;14.38;;
54511;SDS011;40419;47.438;19.026;2024-01-15T06:37:26;20.92;;;12.02;;
54511;SDS011;40419;47.438;19.026;2024-01-15T06:39:54;34.25;;;11.95;;
54511;SDS011;40419;47.438;19.026;2024-01-15T06:42:20;23.15;;;10.82;;
54511;SDS011;40419;47.438;19.026;2024-01-15T06:44:47;19.60;;;10.07;;
54511;SDS011;40419;47.438;19.026;2024-01-15T06:47:15;17.27;;;8.40;;
54511;SDS011;40419;47.438;19.026;2024-01-15T06:49:45;18.38;;;10.60;;
54511;SDS011;40419;47.438;19.026;2024-01-15T06:52:11;18.48;;;10.60;;
54511;SDS011;40419;47.438;19.026;2024-01-15T06:54:37;19.48;;;12.55;;
54511;SDS011;40419;47.438;19.026;2024-01-15T06:57:02;22.33;;;12.32;;
54511;SDS011;40419;47.438;19.026;2024-01-15T06:59:36;19.27;;;12.07;;
54511;SDS011;40419;47.438;19.026;2024-01-15T07:02:07;15.77;;;10.45;;
54511;SDS011;40419;47.438;19.026;2024-01-15T07:04:36;23.08;;;12.30;;
54511;SDS011;40419;47.438;19.026;2024-01-15T07:07:04;22.05;;;11.45;;
54511;SDS011;40419;47.438;19.026;2024-01-15T07:09:32;23.98;;;11.38;;
54511;SDS011;40419;47.438;19.026;2024-01-15T07:11:57;25.58;;;11.85;;
54511;SDS011;40419;47.438;19.026;2024-01-15T07:14:25;26.23;;;11.05;;
54511;SDS011;40419;47.438;19.026;2024-01-15T07:16:51;19.08;;;8.95;;
54511;SDS011;40419;47.438;19.026;2024-01-15T07:19:22;27.50;;;12.65;;
54511;SDS011;40419;47.438;19.026;2024-01-15T07:21:50;12.50;;;7.65;;
54511;SDS011;40419;47.438;19.026;2024-01-15T07:24:16;19.88;;;9.68;;
54511;SDS011;40419;47.438;19.026;2024-01-15T07:26:43;20.35;;;10.60;;
54511;SDS011;40419;47.438;19.026;2024-01-15T07:29:12;14.38;;;9.15;;
54511;SDS011;40419;47.438;19.026;2024-01-15T07:31:39;17.52;;;8.60;;
54511;SDS011;40419;47.438;19.026;2024-01-15T07:34:10;17.92;;;7.63;;
54511;SDS011;40419;47.438;19.026;2024-01-15T07:36:41;17.88;;;9.60;;
54511;SDS011;40419;47.438;19.026;2024-01-15T07:39:06;32.95;;;12.80;;
54511;SDS011;40419;47.438;19.026;2024-01-15T07:41:34;20.55;;;11.02;;
54511;SDS011;40419;47.438;19.026;2024-01-15T07:44:03;24.80;;;11.05;;
54511;SDS011;40419;47.438;19.026;2024-01-15T07:46:29;23.55;;;11.52;;
54511;SDS011;40419;47.438;19.026;2024-01-15T07:48:55;28.75;;;12.45;;
54511;SDS011;40419;47.438;19.026;2024-01-15T07:51:27;18.10;;;7.78;;
54511;SDS011;40419;47.438;19.026;2024-01-15T07:53:55;17.85;;;8.15;;
54511;SDS011;40419;47.438;19.026;2024-01-15T07:56:23;18.20;;;7.13;;
54511;SDS011;40419;47.438;19.026;2024-01-15T07:58:56;16.92;;;8.75;;
54511;SDS011;40419;47.438;19.026;2024-01-15T08:01:24;17.15;;;9.02;;
54511;SDS011;40419;47.438;19.026;2024-01-15T08:03:51;15.00;;;6.68;;
54511;SDS011;40419;47.438;19.026;2024-01-15T08:06:20;8.48;;;6.93;;
54511;SDS011;40419;47.438;19.026;2024-01-15T08:08:46;20.80;;;7.70;;
54511;SDS011;40419;47.438;19.026;2024-01-15T08:11:13;19.02;;;6.95;;
54511;SDS011;40419;47.438;19.026;2024-01-15T08:13:40;17.45;;;8.00;;
54511;SDS011;40419;47.438;19.026;2024-01-15T08:16:11;14.85;;;7.57;;
54511;SDS011;40419;47.438;19.026;2024-01-15T08:18:38;14.25;;;6.47;;
54511;SDS011;40419;47.438;19.026;2024-01-15T08:21:10;19.90;;;7.25;;
54511;SDS011;40419;47.438;19.026;2024-01-15T08:23:35;16.20;;;7.88;;
54511;SDS011;40419;47.438;19.026;2024-01-15T08:26:09;16.75;;;7.70;;
54511;SDS011;40419;47.438;19.026;2024-01-15T08:28:41;13.27;;;7.53;;
54511;SDS011;40419;47.438;19.026;2024-01-15T08:31:06;15.27;;;8.60;;
54511;SDS011;40419;47.438;19.026;2024-01-15T08:33:32;11.98;;;6.82;;
54511;SDS011;40419;47.438;19.026;2024-01-15T08:35:57;11.48;;;7.00;;
54511;SDS011;40419;47.438;19.026;2024-01-15T08:38:23;14.65;;;6.60;;
54511;SDS011;40419;47.438;19.026;2024-01-15T08:40:58;27.58;;;7.10;;
54511;SDS011;40419;47.438;19.026;2024-01-15T08:43:28;15.25;;;6.45;;
54511;SDS011;40419;47.438;19.026;2024-01-15T08:45:56;16.20;;;7.30;;
54511;SDS011;40419;47.438;19.026;2024-01-15T08:48:24;15.90;;;5.22;;
54511;SDS011;40419;47.438;19.026;2024-01-15T08:50:52;8.63;;;5.50;;
54511;SDS011;40419;47.438;19.026;2024-01-15T08:53:21;12.07;;;4.90;;
54511;SDS011;40419;47.438;19.026;2024-01-15T08:55:47;18.83;;;5.03;;
54511;SDS011;40419;47.438;19.026;2024-01-15T08:58:16;11.32;;;6.47;;
54511;SDS011;40419;47.438;19.026;2024-01-15T09:00:42;15.32;;;5.82;;
54511;SDS011;40419;47.438;19.026;2024-01-15T09:03:10;8.38;;;4.80;;
54511;SDS011;40419;47.438;19.026;2024-01-15T09:05:36;10.27;;;5.80;;
54511;SDS011;40419;47.438;19.026;2024-01-15T09:08:06;13.77;;;6.57;;
54511;SDS011;40419;47.438;19.026;2024-01-15T09:10:31;12.13;;;6.07;;
54511;SDS011;40419;47.438;19.026;2024-01-15T09:12:59;11.10;;;5.05;;
54511;SDS011;40419;47.438;19.026;2024-01-15T09:15:29;14.95;;;6.95;;
54511;SDS011;40419;47.438;19.026;2024-01-15T09:17:59;17.15;;;6.28;;
54511;SDS011;40419;47.438;19.026;2024-01-15T09:20:30;11.73;;;4.55;;
54511;SDS011;40419;47.438;19.026;2024-01-15T09:22:58;10.77;;;4.90;;
54511;SDS011;40419;47.438;19.026;2024-01-15T09:25:23;9.48;;;4.45;;
54511;SDS011;40419;47.438;19.026;2024-01-15T09:27:49;7.70;;;4.13;;
54511;SDS011;40419;47.438;19.026;2024-01-15T09:30:17;13.38;;;5.03;;
54511;SDS011;40419;47.438;19.026;2024-01-15T09:32:44;8.82;;;4.38;;
54511;SDS011;40419;47.438;19.026;2024-01-15T09:35:12;10.80;;;6.20;;
54511;SDS011;40419;47.438;19.026;2024-01-15T09:37:39;9.23;;;4.55;;
54511;SDS011;40419;47.438;19.026;2024-01-15T09:40:05;9.65;;;5.03;;
54511;SDS011;40419;47.438;19.026;2024-01-15T09:42:33;13.98;;;4.90;;
54511;SDS011;40419;47.438;19.026;2024-01-15T09:45:05;8.02;;;5.10;;
54511;SDS011;40419;47.438;19.026;2024-01-15T09:47:37;13.05;;;3.92;;
54511;SDS011;40419;47.438;19.026;2024-01-15T09:50:07;11.07;;;3.33;;
54511;SDS011;40419;47.438;19.026;2024-01-15T09:52:32;16.63;;;5.63;;
54511;SDS011;40419;47.438;19.026;2024-01-15T09:55:02;6.82;;;3.03;;
54511;SDS011;40419;47.438;19.026;2024-01-15T09:57:31;8.73;;;3.37;;
54511;SDS011;40419;47.438;19.026;2024-01-15T09:59:58;5.38;;;3.22;;
54511;SDS011;40419;47.438;19.026;2024-01-15T10:02:29;4.70;;;3.28;;
54511;SDS011;40419;47.438;19.026;2024-01-15T10:04:58;8.00;;;3.83;;
54511;SDS011;40419;47.438;19.026;2024-01-15T10:07:26;5.93;;;2.60;;
54511;SDS011;40419;47.438;19.026;2024-01-15T10:09:57;6.05;;;3.08;;
54511;SDS011;40419;47.438;19.026;2024-01-15T10:12:23;7.43;;;3.08;;
54511;SDS011;40419;47.438;19.026;2024-01-15T10:17:23;4.30;;;3.40;;
54511;SDS011;40419;47.438;19.026;2024-01-15T10:19:54;8.18;;;2.55;;
54511;SDS011;40419;47.438;19.026;2024-01-15T10:22:23;8.38;;;3.95;;
54511;SDS011;40419;47.438;19.026;2024-01-15T10:24:51;10.40;;;3.33;;
54511;SDS011;40419;47.438;19.026;2024-01-15T10:27:19;6.40;;;2.72;;
54511;SDS011;40419;47.438;19.026;2024-01-15T10:29:44;6.88;;;2.85;;
54511;SDS011;40419;47.438;19.026;2024-01-15T10:32:14;2.40;;;1.80;;
54511;SDS011;40419;47.438;19.026;2024-01-15T10:34:42;8.35;;;3.55;;
54511;SDS011;40419;47.438;19.026;2024-01-15T10:37:08;6.47;;;2.00;;
54511;SDS011;40419;47.438;19.026;2024-01-15T10:39:38;4.13;;;2.65;;
54511;SDS011;40419;47.438;19.026;2024-01-15T10:42:04;6.82;;;2.40;;
54511;SDS011;40419;47.438;19.026;2024-01-15T10:44:33;5.72;;;1.77;;
54511;SDS011;40419;47.438;19.026;2024-01-15T10:47:01;8.68;;;2.03;;
54511;SDS011;40419;47.438;19.026;2024-01-15T10:49:29;3.05;;;2.30;;
54511;SDS011;40419;47.438;19.026;2024-01-15T10:51:58;4.13;;;1.77;;
54511;SDS011;40419;47.438;19.026;2024-01-15T10:54:24;6.00;;;1.85;;
54511;SDS011;40419;47.438;19.026;2024-01-15T10:56:50;5.30;;;2.13;;
54511;SDS011;40419;47.438;19.026;2024-01-15T10:59:20;5.47;;;2.40;;
54511;SDS011;40419;47.438;19.026;2024-01-15T11:01:48;4.00;;;2.13;;
54511;SDS011;40419;47.438;19.026;2024-01-15T11:04:15;2.75;;;2.10;;
54511;SDS011;40419;47.438;19.026;2024-01-15T11:06:42;5.10;;;2.50;;
54511;SDS011;40419;47.438;19.026;2024-01-15T11:09:10;3.55;;;1.48;;
54511;SDS011;40419;47.438;19.026;2024-01-15T11:11:36;5.22;;;2.60;;
54511;SDS011;40419;47.438;19.026;2024-01-15T11:14:09;3.60;;;1.75;;
54511;SDS011;40419;47.438;19.026;2024-01-15T11:17:11;9.00;;;2.15;;
54511;SDS011;40419;47.438;19.026;2024-01-15T11:19:50;2.63;;;1.92;;
54511;SDS011;40419;47.438;19.026;2024-01-15T11:25:02;4.95;;;2.22;;
54511;SDS011;40419;47.438;19.026;2024-01-15T11:27:40;5.63;;;3.33;;
54511;SDS011;40419;47.438;19.026;2024-01-15T11:30:12;5.47;;;1.73;;
54511;SDS011;40419;47.438;19.026;2024-01-15T11:32:41;5.30;;;2.05;;
54511;SDS011;40419;47.438;19.026;2024-01-15T11:35:09;4.47;;;2.35;;
54511;SDS011;40419;47.438;19.026;2024-01-15T11:40:17;5.07;;;2.45;;
54511;SDS011;40419;47.438;19.026;2024-01-15T11:42:46;8.15;;;2.45;;
54511;SDS011;40419;47.438;19.026;2024-01-15T11:45:18;3.83;;;2.28;;
54511;SDS011;40419;47.438;19.026;2024-01-15T11:50:44;6.78;;;2.40;;
54511;SDS011;40419;47.438;19.026;2024-01-15T11:53:13;6.38;;;2.45;;
54511;SDS011;40419;47.438;19.026;2024-01-15T11:55:45;6.15;;;1.85;;
54511;SDS011;40419;47.438;19.026;2024-01-15T11:58:11;5.97;;;2.45;;
54511;SDS011;40419;47.438;19.026;2024-01-15T12:00:44;5.75;;;1.98;;
54511;SDS011;40419;47.438;19.026;2024-01-15T12:03:12;7.20;;;2.70;;
54511;SDS011;40419;47.438;19.026;2024-01-15T12:05:40;3.33;;;2.03;;
54511;SDS011;40419;47.438;19.026;2024-01-15T12:08:07;5.07;;;2.13;;
54511;SDS011;40419;47.438;19.026;2024-01-15T12:10:38;7.15;;;2.25;;
54511;SDS011;40419;47.438;19.026;2024-01-15T12:13:11;4.85;;;1.98;;
54511;SDS011;40419;47.438;19.026;2024-01-15T12:15:43;4.22;;;2.90;;
54511;SDS011;40419;47.438;19.026;2024-01-15T12:18:12;2.55;;;1.73;;
54511;SDS011;40419;47.438;19.026;2024-01-15T12:20:41;4.95;;;1.55;;
54511;SDS011;40419;47.438;19.026;2024-01-15T12:23:08;5.97;;;1.85;;
54511;SDS011;40419;47.438;19.026;2024-01-15T12:25:36;4.25;;;1.85;;
54511;SDS011;40419;47.438;19.026;2024-01-15T12:28:02;3.92;;;1.40;;
54511;SDS011;40419;47.438;19.026;2024-01-15T12:30:29;7.57;;;2.38;;
54511;SDS011;40419;47.438;19.026;2024-01-15T12:33:01;4.25;;;1.48;;
54511;SDS011;40419;47.438;19.026;2024-01-15T12:35:33;4.43;;;1.52;;
54511;SDS011;40419;47.438;19.026;2024-01-15T12:37:59;3.40;;;1.00;;
54511;SDS011;40419;47.438;19.026;2024-01-15T12:40:30;3.45;;;1.38;;
54511;SDS011;40419;47.438;19.026;2024-01-15T12:43:02;4.18;;;1.52;;
54511;SDS011;40419;47.438;19.026;2024-01-15T12:45:31;6.65;;;2.25;;
54511;SDS011;40419;47.438;19.026;2024-01-15T12:47:57;2.10;;;1.00;;
54511;SDS011;40419;47.438;19.026;2024-01-15T12:50:24;3.85;;;1.90;;
54511;SDS011;40419;47.438;19.026;2024-01-15T12:52:50;4.13;;;2.10;;
54511;SDS011;40419;47.438;19.026;2024-01-15T12:55:18;7.22;;;1.30;;
54511;SDS011;40419;47.438;19.026;2024-01-15T12:57:46;2.33;;;1.45;;
54511;SDS011;40419;47.438;19.026;2024-01-15T13:00:12;2.10;;;1.20;;
54511;SDS011;40419;47.438;19.026;2024-01-15T13:02:38;1.65;;;1.20;;
54511;SDS011;40419;47.438;19.026;2024-01-15T13:05:10;2.35;;;1.02;;
54511;SDS011;40419;47.438;19.026;2024-01-15T13:07:37;3.17;;;1.20;;
54511;SDS011;40419;47.438;19.026;2024-01-15T13:10:03;2.20;;;1.20;;
54511;SDS011;40419;47.438;19.026;2024-01-15T13:12:33;0.80;;;0.80;;
54511;SDS011;40419;47.438;19.026;2024-01-15T13:15:02;1.23;;;0.98;;
54511;SDS011;40419;47.438;19.026;2024-01-15T13:17:28;4.10;;;1.83;;
54511;SDS011;40419;47.438;19.026;2024-01-15T13:19:56;3.95;;;1.60;;
54511;SDS011;40419;47.438;19.026;2024-01-15T13:22:24;4.43;;;1.27;;
54511;SDS011;40419;47.438;19.026;2024-01-15T13:24:55;3.05;;;1.83;;
54511;SDS011;40419;47.438;19.026;2024-01-15T13:27:23;2.65;;;1.00;;
54511;SDS011;40419;47.438;19.026;2024-01-15T13:29:54;3.38;;;1.38;;
54511;SDS011;40419;47.438;19.026;2024-01-15T13:32:24;1.85;;;1.10;;
54511;SDS011;40419;47.438;19.026;2024-01-15T13:34:56;2.13;;;0.98;;
54511;SDS011;40419;47.438;19.026;2024-01-15T13:37:22;3.08;;;1.15;;
54511;SDS011;40419;47.438;19.026;2024-01-15T13:39:50;4.28;;;1.77;;
54511;SDS011;40419;47.438;19.026;2024-01-15T13:42:17;3.28;;;1.33;;
54511;SDS011;40419;47.438;19.026;2024-01-15T13:44:42;4.18;;;1.17;;
54511;SDS011;40419;47.438;19.026;2024-01-15T13:47:08;3.30;;;1.42;;
54511;SDS011;40419;47.438;19.026;2024-01-15T13:49:34;2.60;;;1.33;;
54511;SDS011;40419;47.438;19.026;2024-01-15T13:52:05;1.30;;;1.17;;
54511;SDS011;40419;47.438;19.026;2024-01-15T13:54:31;5.20;;;1.73;;
54511;SDS011;40419;47.438;19.026;2024-01-15T13:56:59;3.60;;;1.75;;
54511;SDS011;40419;47.438;19.026;2024-01-15T13:59:26;0.80;;;0.80;;
54511;SDS011;40419;47.438;19.026;2024-01-15T14:02:01;1.27;;;0.80;;
54511;SDS011;40419;47.438;19.026;2024-01-15T14:04:28;5.60;;;1.70;;
54511;SDS011;40419;47.438;19.026;2024-01-15T14:06:58;2.45;;;1.58;;
54511;SDS011;40419;47.438;19.026;2024-01-15T14:09:29;3.55;;;1.77;;
54511;SDS011;40419;47.438;19.026;2024-01-15T14:12:00;1.38;;;0.98;;
54511;SDS011;40419;47.438;19.026;2024-01-15T14:14:28;3.17;;;1.55;;
54511;SDS011;40419;47.438;19.026;2024-01-15T14:16:53;2.45;;;1.67;;
54511;SDS011;40419;47.438;19.026;2024-01-15T14:19:21;1.90;;;1.50;;
54511;SDS011;40419;47.438;19.026;2024-01-15T14:21:51;4.07;;;1.63;;
54511;SDS011;40419;47.438;19.026;2024-01-15T14:24:19;2.58;;;1.50;;
54511;SDS011;40419;47.438;19.026;2024-01-15T14:26:47;3.05;;;1.40;;
54511;SDS011;40419;47.438;19.026;2024-01-15T14:29:12;2.85;;;1.38;;
54511;SDS011;40419;47.438;19.026;2024-01-15T14:31:42;5.47;;;1.83;;
54511;SDS011;40419;47.438;19.026;2024-01-15T14:34:08;7.30;;;1.40;;
54511;SDS011;40419;47.438;19.026;2024-01-15T14:36:33;2.72;;;1.35;;
54511;SDS011;40419;47.438;19.026;2024-01-15T14:38:59;2.20;;;1.20;;